Flight Track Log - Related Links

Times and Time Zones

All times are in EDT time to prevent confusion due to time zone crossing. See the UAL1202 flight status page for this flight to view local times or setup timezone preferences in your user account.

Time Position Orientation Groundspeed Altitude Reporting Facility
EDT Latitude Longitude Course Direction KTS MPH feet Rate Location/Type
Fri 02:19:57 PM 47.4353 -122.3103 214° Southwest 159 183 1,100  Level Seattle Center
Fri 02:20:15 PM 47.4200 -122.3122 185° South 162 186 1,700 2,188 Climbing Seattle Center
Fri 02:21:22 PM 47.3553 -122.3119 180° South 220 253 4,200 2,391 Climbing Seattle Center
Fri 02:22:00 PM 47.3001 -122.6277 270° West  Level FlightAware Approximate
Fri 02:22:23 PM 47.3122 -122.3833 228° Southwest 265 305 6,800  Level Seattle Center
Fri 02:23:00 PM 47.2944 -122.7949 254° West  Level FlightAware Approximate
Fri 02:23:24 PM 47.3075 -122.4942 266° West 271 312 7,000  Level Seattle Center
Fri 02:24:00 PM 47.2610 -122.9559 250° West  Level FlightAware Approximate
Fri 02:24:25 PM 47.3119 -122.6125 273° West 270 311 8,600  Level Seattle Center
Fri 02:25:00 PM 47.1884 -123.0782 214° Southwest  Level FlightAware Approximate
Fri 02:25:26 PM 47.3147 -122.7297 272° West 285 328 11,300  Level Seattle Center
Fri 02:26:27 PM 47.2900 -122.8644 255° West 350 403 13,500 2,361 Climbing Seattle Center
Fri 02:27:28 PM 47.2353 -122.9792 235° Southwest 363 418 16,100 2,164 Climbing Seattle Center
Fri 02:28:29 PM 47.1414 -122.9961 187° South 389 448 17,900 2,213 Climbing Seattle Center
Fri 02:29:30 PM 47.0103 -123.0150 186° South 398 458 20,600 2,311 Climbing Seattle Center
Fri 02:30:31 PM 46.8961 -123.0283 185° South 410 472 22,600 1,770 Climbing Seattle Center
Fri 02:31:32 PM 46.7781 -123.0431 185° South 428 493 24,200 1,623 Climbing Seattle Center
Fri 02:32:33 PM 46.6581 -123.0636 187° South 435 501 25,900 1,525 Climbing Seattle Center
Fri 02:33:34 PM 46.5331 -123.0797 185° South 452 520 27,300 1,377 Climbing Seattle Center
Fri 02:34:35 PM 46.4056 -123.0961 185° South 463 533 28,700 1,574 Climbing Seattle Center
Fri 02:35:36 PM 46.2772 -123.1131 185° South 465 535 30,500 1,721 Climbing Seattle Center
Fri 02:36:37 PM 46.1431 -123.1306 185° South 460 529 32,200 1,623 Climbing Seattle Center
Fri 02:37:38 PM 46.0169 -123.1464 185° South 456 525 33,800 1,415 Climbing Seattle Center
Fri 02:38:40 PM 45.8928 -123.1614 185° South 451 519 35,100 1,171 Climbing Seattle Center
Fri 02:39:41 PM 45.7711 -123.1761 185° South 442 509 36,200 934 Climbing Seattle Center
Fri 02:40:42 PM 45.6494 -123.1917 185° South 438 504 37,000 393 Climbing Seattle Center
Fri 02:41:43 PM 45.5017 -123.1961 181° South 441 507 37,000  Level Seattle Center
Fri 02:42:44 PM 45.3756 -123.1942 179° South 450 518 37,000  Level Seattle Center
Fri 02:43:45 PM 45.2511 -123.1942 180° South 444 511 37,000 -49 Level Seattle Center
Fri 02:44:47 PM 45.1264 -123.1936 180° South 446 513 36,900  Descending Seattle Center
Fri 02:45:48 PM 45.0011 -123.1939 180° South 446 513 37,000 49 Climbing Seattle Center
Fri 02:46:49 PM 44.8758 -123.1942 180° South 444 511 37,000  Level Seattle Center
Fri 02:47:50 PM 44.7514 -123.1953 180° South 444 511 37,000  Level Seattle Center
Fri 02:48:52 PM 44.6272 -123.1942 180° South 443 510 37,000  Level Seattle Center
Fri 02:49:53 PM 44.5025 -123.1967 181° South 446 513 37,000 -49 Level Seattle Center
Fri 02:50:54 PM 44.3792 -123.1956 180° South 445 512 36,900  Descending Seattle Center
Fri 02:51:55 PM 44.2539 -123.1944 180° South 450 518 37,000  Climbing Seattle Center
Fri 02:52:57 PM 44.1272 -123.1972 181° South 454 522 36,900  Descending Seattle Center
Fri 02:53:58 PM 43.9819 -123.1972 180° South 449 517 37,000 49 Climbing Seattle Center
Fri 02:54:59 PM 43.8578 -123.1981 180° South 447 514 37,000  Level Seattle Center
Fri 02:56:01 PM 43.7322 -123.1992 180° South 448 516 37,000  Level Seattle Center
Fri 02:57:02 PM 43.6075 -123.2000 180° South 448 516 37,000  Level Seattle Center
Fri 02:58:03 PM 43.4833 -123.2000 180° South 446 513 37,000  Level Seattle Center
Fri 02:59:04 PM 43.3586 -123.1978 179° South 447 514 37,000  Level Seattle Center
Fri 03:00:06 PM 43.2336 -123.1878 177° South 448 516 37,000  Level Seattle Center
Fri 03:01:07 PM 43.1103 -123.1786 177° South 445 512 37,000  Level Seattle Center
Fri 03:02:09 PM 42.9872 -123.1703 177° South 442 509 37,000  Level Seattle Center
Fri 03:03:10 PM 42.8406 -123.1603 177° South 439 505 37,000 -49 Level Seattle Center
Fri 03:04:11 PM 42.7161 -123.1506 177° South 439 505 36,900  Descending Seattle Center
Fri 03:05:13 PM 42.5939 -123.1414 177° South 439 505 37,000  Climbing Seattle Center
Fri 03:06:14 PM 42.4717 -123.1361 178° South 440 506 36,900  Descending Seattle Center
Fri 03:07:15 PM 42.3511 -123.1278 177° South 439 505 37,000 49 Climbing Seattle Center
Fri 03:08:17 PM 42.2281 -123.1208 178° South 440 506 37,000 -49 Level Seattle Center
Fri 03:09:18 PM 42.1039 -123.1106 176° South 441 507 36,900  Descending Seattle Center
Fri 03:10:20 PM 41.9808 -123.1025 177° South 443 510 37,000 49 Climbing Seattle Center
Fri 03:11:21 PM 41.8550 -123.0983 179° South 441 507 37,000  Level Seattle Center
Fri 03:12:22 PM 41.7306 -123.0897 177° South 448 516 37,000  Level Seattle Center
Fri 03:13:24 PM 41.6072 -123.0819 177° South 446 513 37,000  Level Seattle Center
Fri 03:14:25 PM 41.4586 -123.0717 177° South 445 512 37,000 -49 Level Seattle Center
Fri 03:15:27 PM 41.3336 -123.0639 177° South 450 518 36,900  Descending Seattle Center
Fri 03:16:28 PM 41.2097 -123.0578 178° South 448 516 37,000 49 Climbing Seattle Center
Fri 03:17:29 PM 41.0883 -123.0492 177° South 441 507 37,000  Level Seattle Center
Fri 03:18:31 PM 40.9672 -123.0417 177° South 436 502 37,000 -56 Level Seattle Center
Fri 03:19:17 PM 40.8725 -123.0378 178° South 432 497 36,900  Descending Oakland Center
Fri 03:20:18 PM 40.7481 -123.0294 177° South 426 490 37,000 49 Climbing Oakland Center
Fri 03:21:20 PM 40.6297 -123.0225 177° South 426 490 37,000  Level Oakland Center
Fri 03:22:21 PM 40.5117 -123.0136 177° South 427 491 37,000  Level Oakland Center
Fri 03:23:23 PM 40.3956 -123.0150 181° South 421 484 37,000  Level Oakland Center
Fri 03:24:24 PM 40.2822 -123.0406 190° South 416 479 37,000  Level Oakland Center
Fri 03:25:26 PM 40.1703 -123.0658 190° South 413 475 37,000  Level Oakland Center
Fri 03:26:27 PM 40.0319 -123.0644 180° South 418 481 37,000  Level Oakland Center
Fri 03:27:29 PM 39.9197 -123.0531 176° South 410 472 37,000  Level Oakland Center
Fri 03:28:30 PM 39.8028 -123.0408 175° South 421 484 37,000  Level Oakland Center
Fri 03:29:32 PM 39.6861 -123.0292 176° South 423 487 37,000  Level Oakland Center
Fri 03:30:34 PM 39.5708 -123.0161 175° South 419 482 37,000  Level Oakland Center
Fri 03:31:35 PM 39.4442 -123.0028 175° South 414 476 37,000  Level Oakland Center
Fri 03:32:37 PM 39.3294 -122.9897 175° South 413 475 37,000 -293 Level Oakland Center
Fri 03:33:38 PM 39.2133 -122.9806 176° South 417 480 36,400 -732 Descending Oakland Center
Fri 03:34:40 PM 39.0994 -122.9683 175° South 412 474 35,500 -1,317 Descending Oakland Center
Fri 03:35:41 PM 38.9858 -122.9567 175° South 410 472 33,700 -2,195 Descending Oakland Center
Fri 03:36:43 PM 38.8733 -122.9467 176° South 406 467 31,000 -2,732 Descending Oakland Center
Fri 03:37:44 PM 38.7375 -122.9325 175° South 409 471 28,100 -2,439 Descending Oakland Center
Fri 03:38:46 PM 38.6264 -122.9233 176° South 402 463 26,000 -2,049 Descending Oakland Center
Fri 03:39:47 PM 38.5183 -122.9131 176° South 391 450 23,900 -2,000 Descending Oakland Center
Fri 03:40:49 PM 38.4103 -122.9011 175° South 391 450 21,900 -2,293 Descending Oakland Center
Fri 03:41:50 PM 38.3056 -122.8775 170° South 383 441 19,200 -2,293 Descending Oakland Center
Fri 03:42:52 PM 38.2058 -122.8258 158° South 384 442 17,200 -2,049 Descending Oakland Center
Fri 03:43:53 PM 38.1106 -122.7786 159° South 370 426 15,000 -2,098 Descending Oakland Center
Fri 03:44:55 PM 38.0022 -122.7253 159° South 353 406 12,900 -1,902 Descending Oakland Center
Fri 03:45:56 PM 37.9161 -122.6836 159° South 342 394 11,100 -934 Descending Oakland Center
Fri 03:46:57 PM 37.8333 -122.6167 147° Southeast 328 377 11,000 -50 Descending Northern Cal TRACON
Fri 03:47:57 PM 37.7667 -122.5333 135° Southeast 330 380 11,000  Level Northern Cal TRACON
Fri 03:48:57 PM 37.7000 -122.4667 142° Southeast 281 323 11,000  Level Northern Cal TRACON
Fri 03:49:57 PM 37.6500 -122.4000 133° Southeast 251 289 11,000 -200 Level Northern Cal TRACON
Fri 03:50:57 PM 37.6000 -122.3667 152° Southeast 253 291 10,600 -1,000 Descending Northern Cal TRACON
Fri 03:51:57 PM 37.5333 -122.3167 149° Southeast 244 281 9,000 -1,550 Descending Northern Cal TRACON
Fri 03:52:57 PM 37.4667 -122.2833 158° South 239 275 7,500 -1,400 Descending Northern Cal TRACON
Fri 03:53:57 PM 37.4333 -122.2167 122° Southeast 219 252 6,200 -1,200 Descending Northern Cal TRACON
Fri 03:54:57 PM 37.4500 -122.1500 73° East 199 229 5,100 -1,100 Descending Northern Cal TRACON
Fri 03:55:57 PM 37.4833 -122.1333 22° Northeast 162 186 4,000 -850 Descending Northern Cal TRACON
Fri 03:56:57 PM 37.5333 -122.1667 332° Northwest 155 178 3,400 -600 Descending Northern Cal TRACON

Login

Don't have an account? Register now (free) for customized features, flight alerts, and more!